Time;durP1;ratioP1;P1;durP2;ratioP2;P2;SDS_P1;SDS_P2;PMS_P1;PMS_P2;Temp;Humidity;BMP_temperature;BMP_pressure;BME280_temperature;BME280_humidity;BME280_pressure;Samples;Min_cycle;Max_cycle;Signal;HPM_P1;HPM_P2
2021/01/24 00:02:19;;;;;;;8.20;4.07;;;4.40;99.90;;;;;;5011958;28;20030;-63
2021/01/24 00:04:44;;;;;;;8.13;4.18;;;4.30;99.90;;;;;;5012375;28;20052;-62
2021/01/24 00:07:10;;;;;;;6.60;3.50;;;4.30;99.90;;;;;;5012179;28;20030;-62
2021/01/24 00:09:36;;;;;;;6.97;3.85;;;4.30;99.90;;;;;;5012363;28;20033;-63
2021/01/24 00:12:03;;;;;;;6.55;3.20;;;4.40;99.90;;;;;;5012148;28;20038;-63
2021/01/24 00:14:29;;;;;;;5.38;2.67;;;4.40;99.90;;;;;;5016362;28;20113;-63
2021/01/24 00:16:54;;;;;;;5.90;3.45;;;4.40;99.90;;;;;;5015891;28;20121;-64
2021/01/24 00:19:20;;;;;;;7.40;3.72;;;4.40;99.90;;;;;;5016229;28;20451;-64
2021/01/24 00:21:46;;;;;;;6.10;2.55;;;4.40;99.90;;;;;;5015957;28;20034;-63
2021/01/24 00:24:12;;;;;;;5.55;3.00;;;4.50;99.90;;;;;;5014679;28;20026;-63
2021/01/24 00:26:38;;;;;;;8.48;2.63;;;4.50;99.90;;;;;;5015954;28;20112;-63
2021/01/24 00:29:04;;;;;;;6.53;3.08;;;4.50;99.90;;;;;;5015889;28;20117;-63
2021/01/24 00:31:30;;;;;;;8.88;3.40;;;4.50;99.90;;;;;;5015873;28;20033;-63
2021/01/24 00:33:56;;;;;;;7.13;3.10;;;4.50;99.90;;;;;;5016036;28;20037;-63
2021/01/24 00:36:22;;;;;;;4.80;2.28;;;4.50;99.90;;;;;;5015595;28;20021;-63
2021/01/24 00:38:49;;;;;;;5.03;2.80;;;4.60;99.90;;;;;;5015696;28;20034;-63
2021/01/24 00:41:15;;;;;;;4.72;2.03;;;4.50;99.90;;;;;;5014355;28;20037;-65
2021/01/24 00:43:41;;;;;;;3.63;2.10;;;4.50;99.90;;;;;;5015640;28;20033;-63
2021/01/24 00:46:07;;;;;;;5.00;2.47;;;4.50;99.90;;;;;;5015678;28;20065;-61
2021/01/24 00:48:37;;;;;;;5.07;2.53;;;4.50;99.90;;;;;;5015472;28;20029;-62
2021/01/24 00:51:06;;;;;;;4.00;2.00;;;4.50;99.90;;;;;;5015333;28;20086;-62
2021/01/24 00:53:33;;;;;;;2.75;1.73;;;4.50;99.90;;;;;;5015385;28;20034;-62
2021/01/24 00:55:58;;;;;;;5.75;2.72;;;4.50;99.90;;;;;;5015278;28;20046;-62
2021/01/24 00:58:25;;;;;;;4.05;2.38;;;4.50;99.90;;;;;;5015368;28;20124;-62
2021/01/24 01:00:51;;;;;;;5.68;2.47;;;4.50;99.90;;;;;;5015191;28;20084;-63
2021/01/24 01:03:18;;;;;;;4.20;2.00;;;4.40;99.90;;;;;;5014127;28;20042;-62
2021/01/24 01:05:47;;;;;;;3.65;1.70;;;4.50;99.90;;;;;;5015312;28;20034;-63
2021/01/24 01:08:14;;;;;;;2.78;1.77;;;4.50;99.90;;;;;;5015056;28;20037;-63
2021/01/24 01:10:41;;;;;;;4.03;2.03;;;4.40;99.90;;;;;;5015187;28;20072;-62
2021/01/24 01:13:07;;;;;;;4.22;1.73;;;4.40;99.90;;;;;;5014929;28;20045;-62
2021/01/24 01:15:34;;;;;;;3.45;2.08;;;4.40;99.90;;;;;;5015090;28;20033;-62
2021/01/24 01:18:00;;;;;;;4.40;1.60;;;4.30;99.90;;;;;;5014968;28;20122;-62
2021/01/24 01:20:26;;;;;;;3.05;1.90;;;4.30;99.90;;;;;;5014797;28;20068;-62
2021/01/24 01:22:53;;;;;;;3.55;1.67;;;4.40;99.90;;;;;;5014835;28;20033;-62
2021/01/24 01:25:19;;;;;;;5.38;1.90;;;4.30;99.90;;;;;;5014641;28;20034;-63
2021/01/24 01:27:45;;;;;;;3.05;1.63;;;4.30;99.90;;;;;;5015080;28;20038;-63
2021/01/24 01:30:11;;;;;;;5.38;2.25;;;4.40;99.90;;;;;;5014774;28;20053;-62
2021/01/24 01:32:37;;;;;;;5.55;2.00;;;4.30;99.90;;;;;;5014696;28;20042;-62
2021/01/24 01:35:05;;;;;;;5.95;2.22;;;4.30;99.90;;;;;;5014555;28;20395;-62
2021/01/24 01:37:31;;;;;;;6.35;2.30;;;4.30;99.90;;;;;;5014472;28;20045;-62
2021/01/24 01:39:58;;;;;;;4.40;2.20;;;4.30;99.90;;;;;;5014587;28;20038;-63
2021/01/24 01:42:24;;;;;;;3.15;1.95;;;4.20;99.90;;;;;;5014665;28;20037;-62
2021/01/24 01:44:49;;;;;;;6.32;2.45;;;4.20;99.90;;;;;;5014756;28;20033;-63
2021/01/24 01:47:23;;;;;;;3.00;1.63;;;4.20;99.90;;;;;;5014522;28;20030;-62
2021/01/24 01:49:52;;;;;;;3.00;1.33;;;4.10;99.90;;;;;;5013280;28;20040;-63
2021/01/24 01:52:18;;;;;;;3.70;2.25;;;4.10;99.90;;;;;;5014158;28;20073;-63
2021/01/24 01:54:47;;;;;;;4.20;1.92;;;4.00;99.90;;;;;;5013419;28;20065;-62
2021/01/24 01:57:13;;;;;;;2.10;1.25;;;4.10;99.90;;;;;;5029140;28;20052;-63
2021/01/24 01:59:40;;;;;;;2.78;1.75;;;4.10;99.90;;;;;;5014258;28;20088;-63
2021/01/24 02:02:26;;;;;;;3.30;1.90;;;4.10;99.90;;;;;;5013955;28;20034;-63
2021/01/24 02:05:02;;;;;;;2.97;1.58;;;4.10;99.90;;;;;;5014116;28;20038;-63
2021/01/24 02:07:41;;;;;;;4.65;1.20;;;4.10;99.90;;;;;;5013970;28;20038;-62
2021/01/24 02:10:19;;;;;;;2.97;1.55;;;4.10;99.90;;;;;;5014018;28;20080;-62
2021/01/24 02:13:05;;;;;;;2.30;1.10;;;4.10;99.90;;;;;;5012857;28;20034;-62
2021/01/24 02:15:33;;;;;;;1.80;1.15;;;4.00;99.90;;;;;;5012759;28;20026;-62
2021/01/24 02:18:07;;;;;;;1.30;0.80;;;4.10;99.90;;;;;;5013744;28;20076;-62
2021/01/24 02:21:07;;;;;;;1.42;0.77;;;4.10;99.90;;;;;;5012589;28;20121;-63
2021/01/24 02:23:33;;;;;;;0.80;0.60;;;4.20;99.90;;;;;;5012653;28;20108;-63
2021/01/24 02:26:43;;;;;;;1.10;0.55;;;4.10;99.90;;;;;;5013957;28;20041;-63
2021/01/24 02:29:50;;;;;;;0.80;0.63;;;4.10;99.90;;;;;;5012459;28;20033;-63
2021/01/24 02:32:19;;;;;;;0.95;0.63;;;4.10;99.90;;;;;;5012685;28;20116;-62
2021/01/24 02:34:47;;;;;;;1.02;0.60;;;4.10;99.90;;;;;;5012039;28;20033;-63
2021/01/24 02:37:15;;;;;;;1.10;0.52;;;4.00;99.90;;;;;;5011916;28;20034;-63
2021/01/24 02:39:43;;;;;;;0.38;0.38;;;4.00;99.90;;;;;;5012286;28;20030;-62
2021/01/24 02:42:10;;;;;;;0.60;0.45;;;4.00;99.90;;;;;;5012081;28;20061;-63
2021/01/24 02:44:38;;;;;;;0.30;0.30;;;3.90;99.90;;;;;;5013647;28;20121;-63
2021/01/24 02:47:05;;;;;;;0.88;0.40;;;4.00;99.90;;;;;;5012158;28;20037;-63
2021/01/24 02:49:32;;;;;;;0.47;0.30;;;3.90;99.90;;;;;;5011966;28;20084;-63
2021/01/24 02:51:59;;;;;;;0.70;0.40;;;3.90;99.90;;;;;;5012399;28;20029;-62
2021/01/24 02:54:26;;;;;;;0.47;0.28;;;3.90;99.90;;;;;;5012068;28;20026;-62
2021/01/24 02:56:52;;;;;;;0.65;0.45;;;3.90;99.90;;;;;;5011802;28;20045;-62
2021/01/24 02:59:19;;;;;;;0.45;0.30;;;3.90;99.90;;;;;;5012040;28;20036;-63
2021/01/24 03:01:45;;;;;;;0.55;0.30;;;3.90;99.90;;;;;;5012259;28;20026;-63
2021/01/24 03:04:11;;;;;;;0.40;0.40;;;3.80;99.90;;;;;;5013026;28;20041;-62
2021/01/24 03:06:37;;;;;;;0.43;0.20;;;3.80;99.90;;;;;;5013249;28;20034;-63
2021/01/24 03:09:04;;;;;;;0.50;0.30;;;3.80;99.90;;;;;;5013302;28;20113;-63
2021/01/24 03:11:33;;;;;;;0.30;0.30;;;3.80;99.90;;;;;;5011814;28;20033;-63
2021/01/24 03:14:10;;;;;;;0.40;0.35;;;3.80;99.90;;;;;;5013126;28;20034;-62
2021/01/24 03:16:38;;;;;;;0.20;0.20;;;3.80;99.90;;;;;;5011912;28;20172;-62
2021/01/24 03:19:07;;;;;;;0.22;0.20;;;3.80;99.90;;;;;;5011600;28;20042;-62
2021/01/24 03:21:37;;;;;;;0.32;0.30;;;3.80;99.90;;;;;;5011332;28;20113;-63
2021/01/24 03:24:06;;;;;;;0.20;0.20;;;3.70;99.90;;;;;;5012645;28;20065;-63
2021/01/24 03:26:32;;;;;;;1.30;0.50;;;3.60;99.90;;;;;;5012849;28;20105;-62
2021/01/24 03:28:59;;;;;;;2.03;0.50;;;3.60;99.90;;;;;;5012679;28;20080;-62
2021/01/24 03:31:25;;;;;;;2.75;0.35;;;3.60;99.90;;;;;;5011218;28;20041;-62
2021/01/24 03:33:53;;;;;;;1.08;0.32;;;3.60;99.90;;;;;;5012667;28;20108;-63
2021/01/24 03:36:19;;;;;;;0.80;0.47;;;3.50;99.90;;;;;;5011425;28;20032;-63
2021/01/24 03:38:45;;;;;;;0.68;0.40;;;3.50;99.90;;;;;;5012764;28;20037;-62
2021/01/24 03:41:11;;;;;;;0.70;0.30;;;3.50;99.90;;;;;;5012439;28;20026;-63
2021/01/24 03:43:37;;;;;;;0.70;0.30;;;3.60;99.90;;;;;;5012704;28;20061;-63
2021/01/24 03:46:03;;;;;;;0.90;0.40;;;3.50;99.90;;;;;;5012455;28;20108;-63
2021/01/24 03:48:29;;;;;;;5.68;0.70;;;3.50;99.90;;;;;;5011654;28;20073;-62
2021/01/24 03:50:54;;;;;;;0.90;0.65;;;3.50;99.90;;;;;;5012693;28;20022;-62
2021/01/24 03:53:20;;;;;;;1.10;0.70;;;3.60;99.90;;;;;;5012078;28;20385;-63
2021/01/24 03:55:46;;;;;;;2.90;0.60;;;3.50;99.90;;;;;;5012245;28;20072;-62
2021/01/24 03:58:12;;;;;;;1.35;0.70;;;3.60;99.90;;;;;;5011947;28;20049;-62
2021/01/24 04:00:38;;;;;;;0.63;0.55;;;3.50;99.90;;;;;;5012249;28;20026;-63
2021/01/24 04:03:04;;;;;;;2.38;1.05;;;3.50;99.90;;;;;;5012365;28;20026;-62
2021/01/24 04:05:30;;;;;;;2.72;1.27;;;3.60;99.90;;;;;;5012209;28;20104;-62
2021/01/24 04:07:56;;;;;;;3.00;1.40;;;3.60;99.90;;;;;;5012287;28;20069;-63
2021/01/24 04:10:22;;;;;;;1.88;1.20;;;3.60;99.90;;;;;;5012045;28;20479;-62
2021/01/24 04:12:48;;;;;;;2.88;1.48;;;3.60;99.90;;;;;;5012435;28;20046;-63
2021/01/24 04:15:17;;;;;;;2.60;0.98;;;3.50;99.90;;;;;;5011905;28;20041;-62
2021/01/24 04:17:44;;;;;;;2.70;1.27;;;3.60;99.90;;;;;;5011997;28;20034;-63
2021/01/24 04:20:11;;;;;;;2.65;1.40;;;3.50;99.90;;;;;;5012214;28;20026;-62
2021/01/24 04:22:36;;;;;;;3.58;1.27;;;3.50;99.90;;;;;;5010706;28;20030;-62
2021/01/24 04:25:04;;;;;;;2.88;1.48;;;3.50;99.90;;;;;;5011959;28;20096;-62
2021/01/24 04:27:30;;;;;;;4.25;2.00;;;3.50;99.90;;;;;;5011863;28;20033;-62
2021/01/24 04:29:56;;;;;;;3.35;1.90;;;3.40;99.90;;;;;;5012238;28;20018;-62
2021/01/24 04:32:22;;;;;;;4.00;2.00;;;3.30;99.90;;;;;;5011796;28;20056;-62
2021/01/24 04:34:48;;;;;;;6.07;2.25;;;3.20;99.90;;;;;;5012127;28;20022;-62
2021/01/24 04:37:14;;;;;;;2.65;1.77;;;3.20;99.90;;;;;;5011903;28;20037;-62
2021/01/24 04:39:40;;;;;;;2.95;1.83;;;3.10;99.90;;;;;;5011943;28;20034;-62
2021/01/24 04:42:06;;;;;;;3.63;1.90;;;3.00;99.90;;;;;;5012208;28;20060;-62
2021/01/24 04:44:34;;;;;;;6.93;2.97;;;3.00;99.90;;;;;;5010691;28;20029;-64
2021/01/24 04:47:01;;;;;;;3.38;2.00;;;3.00;99.90;;;;;;5010677;28;20109;-63
2021/01/24 04:49:27;;;;;;;4.95;2.67;;;2.90;99.90;;;;;;5010472;28;20042;-63
2021/01/24 04:51:53;;;;;;;8.20;2.88;;;3.00;99.90;;;;;;5010678;28;20053;-62
2021/01/24 04:54:19;;;;;;;7.88;3.00;;;3.00;99.90;;;;;;5010470;28;20030;-62
2021/01/24 04:56:45;;;;;;;6.47;3.17;;;2.90;99.90;;;;;;5010346;28;20092;-63
2021/01/24 04:59:11;;;;;;;5.70;2.55;;;2.90;99.90;;;;;;5013459;28;20030;-63
2021/01/24 05:01:39;;;;;;;5.68;2.47;;;3.00;99.90;;;;;;5015214;28;20410;-62
2021/01/24 05:04:06;;;;;;;6.18;3.13;;;3.00;99.90;;;;;;5015553;28;20037;-63
2021/01/24 05:06:32;;;;;;;6.00;2.80;;;3.00;99.90;;;;;;5013970;28;20033;-63
2021/01/24 05:09:00;;;;;;;4.72;2.72;;;3.00;99.90;;;;;;5015267;28;20030;-62
2021/01/24 05:11:27;;;;;;;4.18;2.55;;;3.00;99.90;;;;;;5015235;28;20054;-63
2021/01/24 05:13:53;;;;;;;4.82;2.10;;;3.00;99.90;;;;;;5015106;28;20022;-62
2021/01/24 05:16:23;;;;;;;5.22;2.42;;;3.10;99.90;;;;;;5014936;28;20069;-62
2021/01/24 05:18:58;;;;;;;7.32;3.00;;;3.10;99.90;;;;;;5014121;28;20064;-62
2021/01/24 05:21:30;;;;;;;5.78;2.92;;;3.00;99.90;;;;;;5013826;28;20033;-61
2021/01/24 05:23:56;;;;;;;6.10;3.17;;;3.00;99.90;;;;;;5015225;28;20038;-61
2021/01/24 05:26:24;;;;;;;6.32;2.22;;;3.10;99.90;;;;;;5015006;28;20101;-62
2021/01/24 05:28:50;;;;;;;4.47;1.95;;;3.00;99.90;;;;;;5013664;28;20109;-63
2021/01/24 05:31:21;;;;;;;4.97;2.22;;;3.00;99.90;;;;;;5015072;28;20125;-63
2021/01/24 05:33:48;;;;;;;5.05;2.05;;;3.00;99.90;;;;;;5014770;28;20045;-62
2021/01/24 05:36:14;;;;;;;7.00;2.08;;;3.00;99.90;;;;;;5014968;28;20074;-63
2021/01/24 05:38:41;;;;;;;4.43;2.08;;;3.00;99.90;;;;;;5013366;28;20033;-62
2021/01/24 05:41:12;;;;;;;6.60;1.88;;;3.00;99.90;;;;;;5014734;28;20033;-62
2021/01/24 05:43:43;;;;;;;4.25;1.88;;;3.00;99.90;;;;;;5014825;28;20030;-63
2021/01/24 05:46:11;;;;;;;6.07;2.30;;;2.90;99.90;;;;;;5014758;28;20042;-63
2021/01/24 05:48:48;;;;;;;3.50;1.30;;;2.90;99.90;;;;;;5014617;28;20029;-63
2021/01/24 05:51:16;;;;;;;4.57;1.92;;;2.90;99.90;;;;;;5014678;28;20029;-62
2021/01/24 05:53:48;;;;;;;4.22;1.90;;;2.90;99.90;;;;;;5014284;28;20022;-63
2021/01/24 05:56:19;;;;;;;7.13;1.90;;;2.90;99.90;;;;;;5012807;28;20045;-63
2021/01/24 05:59:02;;;;;;;4.20;1.80;;;2.90;99.90;;;;;;5014418;28;20057;-63
2021/01/24 06:01:31;;;;;;;2.25;1.60;;;2.80;99.90;;;;;;5014298;28;20049;-64
2021/01/24 06:04:00;;;;;;;2.70;1.60;;;2.80;99.90;;;;;;5013016;28;20061;-61
2021/01/24 06:06:26;;;;;;;7.97;2.72;;;2.80;99.90;;;;;;5013005;28;20026;-63
2021/01/24 06:08:52;;;;;;;5.47;2.33;;;2.70;99.90;;;;;;5014080;28;20033;-62
2021/01/24 06:11:19;;;;;;;4.53;1.95;;;2.70;99.90;;;;;;5013182;28;20041;-62
2021/01/24 06:13:48;;;;;;;7.05;2.78;;;2.70;99.90;;;;;;5013817;28;20034;-62
2021/01/24 06:16:46;;;;;;;4.82;2.50;;;2.70;99.90;;;;;;5013001;28;20068;-62
2021/01/24 06:19:14;;;;;;;7.95;2.60;;;2.60;99.90;;;;;;5001524;28;20041;-61
2021/01/24 06:21:51;;;;;;;4.75;1.80;;;2.60;99.90;;;;;;5012333;28;20026;-61
2021/01/24 06:24:21;;;;;;;5.68;2.30;;;2.60;99.90;;;;;;5014070;28;20026;-60
2021/01/24 06:26:56;;;;;;;3.17;1.75;;;2.60;99.90;;;;;;5012671;28;20026;-61
2021/01/24 06:29:26;;;;;;;2.25;1.55;;;2.70;99.90;;;;;;5013824;28;20079;-61
2021/01/24 06:31:54;;;;;;;4.43;2.33;;;2.60;99.90;;;;;;5012707;28;20038;-62
2021/01/24 06:34:37;;;;;;;6.10;2.78;;;2.60;99.90;;;;;;5013918;28;20080;-62
2021/01/24 06:37:19;;;;;;;2.00;1.48;;;2.60;99.90;;;;;;5013792;28;20092;-62
2021/01/24 06:39:55;;;;;;;3.15;1.67;;;2.60;99.90;;;;;;5013255;28;20034;-61
2021/01/24 06:42:44;;;;;;;3.80;2.25;;;2.60;99.90;;;;;;5013744;28;20041;-62
2021/01/24 06:45:22;;;;;;;3.15;1.40;;;2.60;99.90;;;;;;5012565;28;20045;-62
2021/01/24 06:47:48;;;;;;;4.07;2.40;;;2.50;99.90;;;;;;5013408;28;20089;-62
2021/01/24 06:50:43;;;;;;;3.25;1.75;;;2.40;99.90;;;;;;5013320;28;20065;-62
2021/01/24 06:53:20;;;;;;;4.10;2.08;;;2.50;99.90;;;;;;5012040;28;20026;-62
2021/01/24 06:55:58;;;;;;;4.95;2.22;;;2.50;99.90;;;;;;5012997;28;20042;-62
2021/01/24 06:58:28;;;;;;;9.20;2.75;;;2.50;99.90;;;;;;5013383;28;20030;-61
2021/01/24 07:01:32;;;;;;;3.97;2.33;;;2.50;99.90;;;;;;5013410;28;20037;-62
2021/01/24 07:04:17;;;;;;;3.92;2.25;;;2.50;99.90;;;;;;5011918;28;20038;-62
2021/01/24 07:06:48;;;;;;;3.70;2.00;;;2.50;99.90;;;;;;5013079;28;20034;-62
2021/01/24 07:09:28;;;;;;;5.30;2.00;;;2.50;99.90;;;;;;5012985;28;20053;-61
2021/01/24 07:11:59;;;;;;;3.30;2.03;;;2.50;99.90;;;;;;5013182;28;20037;-61
2021/01/24 07:14:35;;;;;;;5.93;2.40;;;2.50;99.90;;;;;;5012802;28;20034;-61
2021/01/24 07:17:09;;;;;;;7.80;2.20;;;2.50;99.90;;;;;;5004982;28;20068;-61
2021/01/24 07:19:41;;;;;;;4.03;1.98;;;2.60;99.90;;;;;;4993131;28;20038;-62
2021/01/24 07:22:08;;;;;;;5.00;2.17;;;2.50;99.90;;;;;;5008045;28;20026;-62
2021/01/24 07:24:35;;;;;;;4.20;2.30;;;2.60;99.90;;;;;;5008252;28;20126;-62
2021/01/24 07:27:04;;;;;;;2.95;1.83;;;2.60;99.90;;;;;;5007754;28;20031;-61
2021/01/24 07:29:30;;;;;;;8.82;2.85;;;2.50;99.90;;;;;;4992971;28;20038;-61
2021/01/24 07:31:56;;;;;;;6.30;1.90;;;2.50;99.90;;;;;;4993271;28;20084;-60
2021/01/24 07:34:24;;;;;;;3.83;1.58;;;2.50;99.90;;;;;;4993215;28;20034;-61
2021/01/24 07:36:52;;;;;;;3.60;1.80;;;2.40;99.90;;;;;;4992998;28;20093;-61
2021/01/24 07:39:20;;;;;;;4.85;2.72;;;2.30;99.90;;;;;;4992941;28;20041;-64
2021/01/24 07:41:50;;;;;;;6.53;2.15;;;2.40;99.90;;;;;;4992692;28;20130;-64
2021/01/24 07:44:17;;;;;;;5.20;2.85;;;2.30;99.90;;;;;;4992783;28;20077;-64
2021/01/24 07:46:43;;;;;;;5.00;2.97;;;2.30;99.90;;;;;;5005704;28;20030;-62
2021/01/24 07:49:09;;;;;;;6.88;2.65;;;2.20;99.90;;;;;;4992595;28;20030;-62
2021/01/24 07:51:37;;;;;;;3.05;1.75;;;2.20;99.90;;;;;;4992600;28;20030;-61
2021/01/24 07:54:04;;;;;;;6.55;2.85;;;2.30;99.90;;;;;;4991778;28;20038;-61
2021/01/24 07:56:30;;;;;;;7.65;3.40;;;2.20;99.90;;;;;;5004563;28;20061;-61
2021/01/24 07:58:57;;;;;;;6.07;2.63;;;2.30;99.90;;;;;;5012617;28;20037;-60
2021/01/24 08:01:23;;;;;;;4.38;2.38;;;2.30;99.90;;;;;;5012486;28;20074;-60
2021/01/24 08:03:49;;;;;;;4.93;2.42;;;2.30;99.90;;;;;;5012339;28;20037;-60
2021/01/24 08:06:15;;;;;;;6.72;2.90;;;2.30;99.90;;;;;;5012113;28;20026;-61
2021/01/24 08:08:43;;;;;;;5.20;2.38;;;2.30;99.90;;;;;;5012178;28;20028;-61
2021/01/24 08:11:11;;;;;;;5.28;2.13;;;2.30;99.90;;;;;;5012184;28;20037;-61
2021/01/24 08:13:41;;;;;;;14.80;3.35;;;2.40;99.90;;;;;;5011932;28;20088;-59
2021/01/24 08:16:22;;;;;;;8.07;2.25;;;2.30;99.90;;;;;;5011217;28;20033;-59
2021/01/24 08:18:52;;;;;;;4.20;2.30;;;2.40;99.90;;;;;;5012147;28;20041;-60
2021/01/24 08:21:19;;;;;;;3.95;1.90;;;2.40;99.90;;;;;;5010713;28;20033;-60
2021/01/24 08:23:46;;;;;;;6.50;2.72;;;2.40;99.90;;;;;;5010568;28;20034;-59
2021/01/24 08:26:13;;;;;;;6.85;3.20;;;2.30;99.90;;;;;;5012285;28;20026;-59
2021/01/24 08:28:41;;;;;;;6.32;3.38;;;2.40;99.90;;;;;;5012041;28;20064;-60
2021/01/24 08:31:08;;;;;;;3.40;2.05;;;2.30;99.90;;;;;;5011945;28;20034;-60
2021/01/24 08:33:35;;;;;;;3.33;2.28;;;2.40;99.90;;;;;;5012799;28;20072;-59
2021/01/24 08:36:18;;;;;;;5.22;2.88;;;2.50;99.90;;;;;;5015911;28;20029;-59
2021/01/24 08:38:46;;;;;;;4.13;2.47;;;2.50;99.90;;;;;;5015419;28;20041;-59
2021/01/24 08:41:17;;;;;;;5.45;2.97;;;2.50;99.90;;;;;;5014826;28;20026;-58
2021/01/24 08:43:43;;;;;;;6.25;2.80;;;2.60;99.90;;;;;;5014646;28;20144;-57
2021/01/24 08:46:18;;;;;;;12.00;3.38;;;2.60;99.90;;;;;;5015999;28;20034;-60
2021/01/24 08:48:44;;;;;;;8.10;3.65;;;2.60;99.90;;;;;;5015300;28;20062;-61
2021/01/24 08:51:11;;;;;;;9.77;3.20;;;2.60;99.90;;;;;;5013702;28;20069;-60
2021/01/24 08:53:36;;;;;;;5.63;2.72;;;2.70;99.90;;;;;;5015357;28;20041;-60
2021/01/24 08:56:02;;;;;;;9.43;2.90;;;2.70;99.90;;;;;;5015315;28;20054;-60
2021/01/24 08:58:29;;;;;;;5.40;2.63;;;2.70;99.90;;;;;;5015599;28;20076;-59
2021/01/24 09:01:06;;;;;;;6.57;3.25;;;2.70;99.90;;;;;;5015155;28;20037;-60
2021/01/24 09:03:32;;;;;;;6.60;3.10;;;2.80;99.90;;;;;;5015350;28;20088;-60
2021/01/24 09:06:19;;;;;;;4.82;2.78;;;2.80;99.90;;;;;;5015294;28;20122;-59
2021/01/24 09:08:52;;;;;;;5.53;2.67;;;2.90;99.90;;;;;;5015036;28;20068;-58
2021/01/24 09:11:19;;;;;;;4.88;2.47;;;2.90;99.90;;;;;;5015121;28;20046;-60
2021/01/24 09:13:45;;;;;;;4.90;2.38;;;2.90;99.90;;;;;;5014800;28;20034;-55
2021/01/24 09:16:11;;;;;;;5.00;2.38;;;3.00;99.90;;;;;;5014970;28;20038;-60
2021/01/24 09:18:37;;;;;;;3.20;1.73;;;3.00;99.90;;;;;;5014558;28;20069;-61
2021/01/24 09:21:06;;;;;;;4.82;2.63;;;3.00;99.90;;;;;;5014699;28;20440;-60
2021/01/24 09:23:32;;;;;;;3.88;2.28;;;3.00;99.90;;;;;;5015006;28;20057;-59
2021/01/24 09:25:59;;;;;;;5.03;2.50;;;3.00;99.90;;;;;;5015068;28;20034;-60
2021/01/24 09:28:26;;;;;;;5.18;2.63;;;3.00;99.90;;;;;;5015006;28;20068;-58
2021/01/24 09:30:53;;;;;;;4.10;2.30;;;3.00;99.90;;;;;;5014458;28;20018;-58
2021/01/24 09:33:20;;;;;;;5.15;2.30;;;3.00;99.90;;;;;;5014640;28;20069;-58
2021/01/24 09:35:46;;;;;;;5.07;2.45;;;3.00;99.90;;;;;;5014743;28;20030;-59
2021/01/24 09:38:12;;;;;;;4.95;2.70;;;3.10;99.90;;;;;;5010209;28;20037;-59
2021/01/24 09:40:38;;;;;;;4.68;2.45;;;3.10;99.90;;;;;;5014048;28;20111;-60
2021/01/24 09:43:04;;;;;;;6.90;2.50;;;3.20;99.90;;;;;;5014368;28;20189;-60
2021/01/24 09:45:30;;;;;;;6.15;3.03;;;3.10;99.90;;;;;;5014489;28;20022;-59
2021/01/24 09:47:56;;;;;;;6.10;2.47;;;3.20;99.90;;;;;;5014486;28;20052;-59
2021/01/24 09:50:23;;;;;;;6.07;2.38;;;3.10;99.90;;;;;;5014316;28;20123;-59
2021/01/24 09:52:50;;;;;;;4.57;2.83;;;3.20;99.90;;;;;;5014282;28;20030;-60
2021/01/24 09:55:16;;;;;;;7.80;2.78;;;3.10;99.90;;;;;;5014147;28;20057;-60
2021/01/24 09:57:43;;;;;;;7.35;3.30;;;3.10;99.90;;;;;;5016729;28;20026;-59
2021/01/24 10:00:09;;;;;;;4.65;2.10;;;3.20;99.90;;;;;;5014285;28;20033;-60
2021/01/24 10:02:35;;;;;;;7.82;2.92;;;3.30;99.90;;;;;;5014391;28;20034;-60
2021/01/24 10:05:01;;;;;;;6.93;3.80;;;3.30;99.90;;;;;;5014313;28;20044;-60
2021/01/24 10:07:27;;;;;;;8.00;2.95;;;3.30;99.90;;;;;;5013116;28;20042;-59
2021/01/24 10:09:53;;;;;;;6.60;3.00;;;3.30;99.90;;;;;;5014092;28;20026;-61
2021/01/24 10:12:19;;;;;;;5.88;2.92;;;3.30;99.90;;;;;;5013837;28;20036;-60
2021/01/24 10:14:45;;;;;;;6.43;3.22;;;3.40;99.90;;;;;;5013654;28;20030;-61
2021/01/24 10:17:11;;;;;;;9.13;2.47;;;3.30;99.90;;;;;;5013779;28;20045;-61
2021/01/24 10:19:38;;;;;;;5.30;3.22;;;3.30;99.90;;;;;;5013988;28;20100;-60
2021/01/24 10:22:04;;;;;;;4.03;2.42;;;3.30;99.90;;;;;;5014088;28;20467;-58
2021/01/24 10:24:30;;;;;;;7.47;3.22;;;3.40;99.90;;;;;;5013935;28;20022;-59
2021/01/24 10:26:56;;;;;;;5.13;2.33;;;3.30;99.90;;;;;;5013918;28;20097;-60
2021/01/24 10:29:22;;;;;;;6.22;2.92;;;3.30;99.90;;;;;;5013887;28;20493;-59
2021/01/24 10:31:48;;;;;;;4.97;2.50;;;3.30;99.90;;;;;;5013507;28;20026;-58
2021/01/24 10:34:14;;;;;;;7.38;3.03;;;3.40;99.90;;;;;;5012640;28;20033;-60
2021/01/24 10:36:40;;;;;;;3.30;2.20;;;3.40;99.90;;;;;;5013124;28;20171;-60
2021/01/24 10:39:06;;;;;;;8.20;2.42;;;3.40;99.90;;;;;;5013294;28;20038;-59
2021/01/24 10:41:32;;;;;;;6.80;2.78;;;3.40;99.90;;;;;;5013743;28;20026;-59
2021/01/24 10:43:59;;;;;;;6.68;3.35;;;3.30;99.90;;;;;;5012838;28;20387;-60
2021/01/24 10:46:25;;;;;;;5.97;3.50;;;3.30;99.90;;;;;;5013629;28;20036;-59
2021/01/24 10:48:51;;;;;;;13.63;3.13;;;3.50;99.90;;;;;;5012457;28;20038;-60
2021/01/24 10:51:17;;;;;;;3.92;2.13;;;3.50;99.90;;;;;;5011970;28;20037;-60
2021/01/24 10:53:43;;;;;;;10.88;2.83;;;3.50;99.90;;;;;;5013099;28;20116;-60
2021/01/24 10:56:09;;;;;;;5.53;2.28;;;3.40;99.90;;;;;;5012252;28;20061;-60
2021/01/24 10:58:35;;;;;;;3.80;1.42;;;3.40;99.90;;;;;;5013233;28;20033;-59
2021/01/24 11:01:01;;;;;;;9.32;3.38;;;3.50;99.90;;;;;;5011841;28;20084;-61
2021/01/24 11:03:27;;;;;;;7.15;3.42;;;3.40;99.90;;;;;;5013340;28;20056;-61
2021/01/24 11:05:53;;;;;;;4.82;2.70;;;3.50;99.90;;;;;;5013233;28;20034;-60
2021/01/24 11:08:18;;;;;;;4.90;2.72;;;3.60;99.90;;;;;;5013330;28;20036;-60
2021/01/24 11:10:44;;;;;;;5.43;2.28;;;3.50;99.90;;;;;;5013069;28;20084;-60
2021/01/24 11:13:10;;;;;;;6.57;3.20;;;3.60;99.90;;;;;;5013050;28;20061;-61
2021/01/24 11:15:36;;;;;;;6.32;2.03;;;3.50;99.90;;;;;;5013091;28;20030;-60
2021/01/24 11:18:02;;;;;;;7.93;2.85;;;3.50;99.90;;;;;;5012923;28;20030;-60
2021/01/24 11:20:28;;;;;;;5.70;2.80;;;3.50;99.90;;;;;;5012947;28;20030;-60
2021/01/24 11:22:54;;;;;;;6.32;2.90;;;3.60;99.90;;;;;;5012987;28;20117;-60
2021/01/24 11:25:20;;;;;;;6.45;3.03;;;3.50;99.90;;;;;;5012922;28;20038;-60
2021/01/24 11:27:46;;;;;;;3.95;2.38;;;3.60;99.90;;;;;;5012413;28;20030;-60
2021/01/24 11:30:13;;;;;;;11.95;2.97;;;3.60;99.90;;;;;;5012811;28;20034;-58
2021/01/24 11:32:40;;;;;;;8.07;3.22;;;3.70;99.90;;;;;;5012793;28;20038;-59
2021/01/24 11:35:08;;;;;;;6.50;2.30;;;3.70;99.90;;;;;;5012355;28;20050;-59
2021/01/24 11:37:34;;;;;;;9.05;2.72;;;3.80;99.90;;;;;;5011625;28;20042;-59
2021/01/24 11:40:01;;;;;;;4.45;2.40;;;3.80;99.90;;;;;;5012320;28;20032;-58
2021/01/24 11:42:27;;;;;;;6.00;2.35;;;3.90;99.90;;;;;;5012800;28;20038;-59
2021/01/24 11:44:52;;;;;;;5.68;2.67;;;3.90;99.90;;;;;;5012499;28;20030;-60
2021/01/24 11:47:37;;;;;;;5.22;2.17;;;3.80;99.90;;;;;;5015267;28;20068;-59
2021/01/24 11:50:24;;;;;;;4.20;2.25;;;3.80;99.90;;;;;;5011243;28;20372;-58
2021/01/24 11:53:10;;;;;;;7.00;2.78;;;3.90;99.90;;;;;;5012353;28;20494;-60
2021/01/24 11:55:56;;;;;;;5.95;2.25;;;3.80;99.90;;;;;;5012149;28;20499;-59
2021/01/24 11:58:42;;;;;;;13.63;2.53;;;3.80;99.90;;;;;;5011526;28;20045;-60
2021/01/24 12:01:28;;;;;;;5.03;2.70;;;3.90;99.90;;;;;;5011027;28;20042;-59
2021/01/24 12:04:14;;;;;;;5.80;2.03;;;3.90;99.90;;;;;;5011593;28;20422;-59
2021/01/24 12:07:00;;;;;;;8.18;2.70;;;4.00;99.90;;;;;;5011189;28;20038;-60
2021/01/24 12:09:46;;;;;;;2.90;2.00;;;3.90;99.90;;;;;;5014260;28;20066;-59
2021/01/24 12:12:32;;;;;;;4.90;2.45;;;3.90;99.90;;;;;;5016671;28;20036;-59
2021/01/24 12:15:18;;;;;;;4.65;2.53;;;4.00;99.90;;;;;;5016162;28;20069;-60
2021/01/24 12:18:05;;;;;;;4.53;2.22;;;3.90;99.90;;;;;;5014926;28;20650;-61
2021/01/24 12:20:51;;;;;;;8.50;3.33;;;4.00;99.90;;;;;;5015905;28;20053;-60
2021/01/24 12:23:37;;;;;;;5.28;2.47;;;4.10;99.90;;;;;;5016176;28;20037;-59
2021/01/24 12:26:24;;;;;;;7.93;2.85;;;4.10;99.90;;;;;;5014899;28;20033;-59
2021/01/24 12:29:10;;;;;;;7.80;2.83;;;4.10;99.90;;;;;;5015391;28;20052;-57
2021/01/24 12:31:56;;;;;;;4.97;2.60;;;4.10;99.90;;;;;;5015876;28;20034;-60
2021/01/24 12:34:42;;;;;;;6.50;2.50;;;4.00;99.90;;;;;;5015956;28;20096;-60
2021/01/24 12:37:28;;;;;;;4.40;1.90;;;4.20;99.90;;;;;;5014775;28;20034;-59
2021/01/24 12:40:15;;;;;;;6.60;3.05;;;4.20;99.90;;;;;;5015914;28;20612;-60
2021/01/24 12:43:02;;;;;;;8.80;2.22;;;4.30;99.90;;;;;;5015194;28;20038;-58
2021/01/24 12:45:48;;;;;;;2.65;1.77;;;4.30;99.90;;;;;;5015795;28;20513;-63
2021/01/24 12:48:34;;;;;;;8.00;2.45;;;4.50;99.90;;;;;;5015197;28;20084;-59
2021/01/24 12:51:20;;;;;;;3.13;1.70;;;4.90;99.90;;;;;;5013859;28;20422;-61
2021/01/24 12:54:06;;;;;;;4.13;1.98;;;5.40;99.90;;;;;;5013930;28;20364;-61
2021/01/24 12:56:52;;;;;;;4.45;2.17;;;5.80;99.90;;;;;;5015197;28;20046;-60
2021/01/24 12:59:40;;;;;;;5.95;2.08;;;6.70;99.90;;;;;;5010357;28;20064;-61
2021/01/24 13:02:26;;;;;;;2.50;1.63;;;7.00;99.30;;;;;;4995257;28;20038;-60
2021/01/24 13:05:14;;;;;;;5.95;2.47;;;7.30;98.30;;;;;;4993134;28;20026;-60
2021/01/24 13:08:04;;;;;;;4.38;1.90;;;7.00;99.10;;;;;;4996245;28;20465;-62
2021/01/24 13:10:50;;;;;;;3.42;1.88;;;7.00;98.20;;;;;;4994793;28;20042;-62
2021/01/24 13:13:36;;;;;;;3.67;1.60;;;7.40;98.10;;;;;;4995908;28;20109;-62
2021/01/24 13:16:22;;;;;;;5.25;1.67;;;6.80;99.40;;;;;;4995974;28;20034;-61